Time;durP1;ratioP1;P1;durP2;ratioP2;P2;SDS_P1;SDS_P2;PMS_P1;PMS_P2;Temp;Humidity;BMP_temperature;BMP_pressure;BME280_temperature;BME280_humidity;BME280_pressure;Samples;Min_cycle;Max_cycle;Signal;HPM_P1;HPM_P2
2023/03/18 00:00:24;;;;;;;20.20;11.82;;;;;;;9.05;83.71;100973.16;6099934;19;20043;-78
2023/03/18 00:02:29;;;;;;;18.77;11.88;;;;;;;9.01;83.76;100982.91;6099256;19;20478;-78
2023/03/18 00:04:33;;;;;;;24.75;13.38;;;;;;;8.96;84.88;100984.81;6099347;19;20014;-78
2023/03/18 00:06:39;;;;;;;20.35;12.80;;;;;;;8.90;85.42;100980.63;6099796;19;20018;-78
2023/03/18 00:08:49;;;;;;;26.33;15.25;;;;;;;8.90;86.09;100979.72;6097799;19;20070;-78
2023/03/18 00:10:56;;;;;;;20.88;12.13;;;;;;;8.86;85.02;100983.38;6097435;19;20010;-78
2023/03/18 00:13:06;;;;;;;21.65;13.48;;;;;;;8.85;85.51;100981.66;6095115;19;20860;-78
2023/03/18 00:15:11;;;;;;;23.00;13.32;;;;;;;8.81;86.09;100986.13;6099131;19;20050;-78
2023/03/18 00:17:16;;;;;;;22.33;11.85;;;;;;;8.81;85.06;100980.88;6099318;19;20082;-78
2023/03/18 00:19:21;;;;;;;20.60;12.02;;;;;;;8.83;85.71;100981.69;6095970;19;20091;-79
2023/03/18 00:21:26;;;;;;;24.95;13.60;;;;;;;8.85;86.08;100984.28;6098865;19;20017;-78
2023/03/18 00:23:31;;;;;;;21.98;13.00;;;;;;;8.83;86.10;100983.47;6098146;19;20014;-79
2023/03/18 00:25:36;;;;;;;23.55;12.88;;;;;;;8.82;86.33;100987.88;6097589;19;20014;-79
2023/03/18 00:27:41;;;;;;;24.13;13.02;;;;;;;8.84;86.85;100985.19;6097986;19;20028;-78
2023/03/18 00:29:49;;;;;;;24.17;13.75;;;;;;;8.82;86.60;100984.34;6096163;19;20337;-78
2023/03/18 00:31:54;;;;;;;23.63;13.40;;;;;;;8.78;86.25;100991.47;6096865;19;20015;-79
2023/03/18 00:33:59;;;;;;;23.35;12.40;;;;;;;8.74;86.62;100981.97;6096642;19;20010;-78
2023/03/18 00:36:05;;;;;;;23.10;12.73;;;;;;;8.72;85.75;100979.41;6094766;19;20693;-79
2023/03/18 00:38:19;;;;;;;20.98;11.45;;;;;;;8.71;85.35;100975.06;6098655;19;20014;-78
2023/03/18 00:40:28;;;;;;;24.70;15.10;;;;;;;8.91;87.95;100982.31;6096898;19;20031;-79
2023/03/18 00:42:37;;;;;;;22.40;13.13;;;;;;;8.81;86.13;100985.28;6098522;19;20007;-80
2023/03/18 00:44:43;;;;;;;23.20;13.55;;;;;;;8.84;86.83;100977.31;6097077;19;20019;-77
2023/03/18 00:46:54;;;;;;;23.50;13.35;;;;;;;8.79;85.87;100978.34;6097928;19;20505;-79
2023/03/18 00:49:01;;;;;;;20.85;11.88;;;;;;;8.75;85.68;100979.31;6094114;19;20229;-74
2023/03/18 00:51:08;;;;;;;24.10;13.30;;;;;;;8.73;87.02;100981.13;6097845;19;20436;-78
2023/03/18 00:53:15;;;;;;;25.50;14.55;;;;;;;8.84;87.24;100977.31;6096463;19;20225;-79
2023/03/18 00:55:22;;;;;;;26.10;15.02;;;;;;;8.90;87.33;100982.34;6097188;19;20025;-77
2023/03/18 00:57:27;;;;;;;29.50;16.63;;;;;;;8.97;87.27;100982.13;6097410;19;20228;-80
2023/03/18 00:59:32;;;;;;;34.30;17.02;;;;;;;9.06;87.33;100978.38;6094100;19;20014;-78
2023/03/18 01:01:40;;;;;;;29.85;14.93;;;;;;;9.01;87.23;100983.75;6096671;19;20538;-78
2023/03/18 01:03:49;;;;;;;26.48;15.77;;;;;;;8.94;86.28;100976.97;6103346;19;20239;-79
2023/03/18 01:05:55;;;;;;;22.50;14.13;;;;;;;8.95;86.52;100976.09;6105893;19;20671;-79
2023/03/18 01:08:00;;;;;;;25.50;15.35;;;;;;;9.00;87.52;100981.16;6105019;19;20089;-78
2023/03/18 01:10:06;;;;;;;27.85;15.10;;;;;;;9.08;87.02;100975.69;6105644;19;20011;-79
2023/03/18 01:12:14;;;;;;;23.70;14.88;;;;;;;9.02;86.67;100980.22;6100126;19;20014;-79
2023/03/18 01:14:20;;;;;;;26.98;15.85;;;;;;;9.04;87.08;100977.56;6104249;19;20735;-79
2023/03/18 01:16:25;;;;;;;33.28;15.18;;;;;;;9.03;86.77;100981.09;6102225;19;20011;-79
2023/03/18 01:18:32;;;;;;;28.75;16.02;;;;;;;9.05;87.44;100979.25;6104211;19;20066;-79
2023/03/18 01:20:41;;;;;;;27.80;15.88;;;;;;;9.03;86.29;100981.09;6102526;19;20461;-79
2023/03/18 01:22:46;;;;;;;30.98;17.42;;;;;;;9.10;86.95;100982.59;6101425;19;20020;-79
2023/03/18 01:24:51;;;;;;;30.70;16.45;;;;;;;9.11;87.41;100983.44;6104407;19;20658;-79
2023/03/18 01:26:56;;;;;;;34.35;18.42;;;;;;;9.12;87.64;100986.03;6104344;19;20019;-80
2023/03/18 01:29:02;;;;;;;30.38;17.35;;;;;;;9.09;86.74;100986.13;6098498;19;20458;-79
2023/03/18 01:31:14;;;;;;;31.60;16.80;;;;;;;9.12;86.61;100985.19;6101674;19;20656;-80
2023/03/18 01:33:20;;;;;;;29.05;16.80;;;;;;;9.12;86.91;100986.03;6105209;19;20030;-79
2023/03/18 01:35:25;;;;;;;29.17;17.08;;;;;;;9.16;87.10;100978.91;6106515;19;20014;-80
2023/03/18 01:37:36;;;;;;;33.47;17.13;;;;;;;9.17;86.38;100989.34;6111291;19;20475;-78
2023/03/18 01:39:43;;;;;;;32.50;18.98;;;;;;;9.25;87.17;100980.41;6115298;19;20035;-79
2023/03/18 01:41:49;;;;;;;34.78;18.63;;;;;;;9.26;86.71;100982.94;6118767;19;20066;-78
2023/03/18 01:43:55;;;;;;;31.83;17.35;;;;;;;9.26;86.48;100987.34;6121346;19;20006;-78
2023/03/18 01:46:02;;;;;;;31.55;17.80;;;;;;;9.25;86.54;100980.41;6122173;19;20313;-78
2023/03/18 01:48:07;;;;;;;36.70;18.20;;;;;;;9.22;86.33;100982.19;6117176;19;20039;-78
2023/03/18 01:50:13;;;;;;;39.72;18.50;;;;;;;9.30;86.88;100981.94;6119309;19;20014;-79
2023/03/18 01:52:24;;;;;;;36.45;19.10;;;;;;;9.27;86.79;100983.81;6119004;19;20036;-78
2023/03/18 01:54:39;;;;;;;36.58;20.20;;;;;;;9.33;86.84;100973.13;6119352;19;20254;-78
2023/03/18 01:56:46;;;;;;;35.70;19.60;;;;;;;9.31;86.10;100970.53;6114737;19;20094;-78
2023/03/18 01:58:56;;;;;;;35.40;18.55;;;;;;;9.30;86.25;100975.84;6108734;19;20010;-78
2023/03/18 02:01:04;;;;;;;37.88;19.55;;;;;;;9.24;86.29;100987.38;6107823;19;20020;-78
2023/03/18 02:03:09;;;;;;;34.33;19.60;;;;;;;9.27;86.62;100983.81;6113279;19;20077;-78
2023/03/18 02:05:17;;;;;;;35.63;20.00;;;;;;;9.24;86.47;100995.25;6112824;19;20017;-79
2023/03/18 02:07:26;;;;;;;37.50;21.30;;;;;;;9.25;86.27;100986.50;6105537;19;20023;-79
2023/03/18 02:09:34;;;;;;;35.05;19.45;;;;;;;9.26;86.12;100982.94;6105579;19;20015;-79
2023/03/18 02:11:44;;;;;;;39.95;22.88;;;;;;;9.34;86.44;100980.94;6102981;19;20018;-80
2023/03/18 02:13:49;;;;;;;39.42;21.15;;;;;;;9.36;85.90;100991.38;6104422;19;20250;-78
2023/03/18 02:16:00;;;;;;;39.47;21.42;;;;;;;9.38;85.83;100986.94;6101338;19;20491;-79
2023/03/18 02:18:09;;;;;;;38.65;20.50;;;;;;;9.41;85.56;100982.44;6102397;19;20468;-79
2023/03/18 02:20:28;;;;;;;38.13;21.50;;;;;;;9.45;85.52;100984.06;6099834;19;20025;-78
2023/03/18 02:22:38;;;;;;;39.30;20.52;;;;;;;9.47;85.62;100978.75;6100110;19;20011;-78
2023/03/18 02:24:51;;;;;;;42.30;21.88;;;;;;;9.59;84.84;100980.97;6100400;19;20030;-77
2023/03/18 02:27:00;;;;;;;;;;;;;;;9.68;84.66;100982.41;6101593;19;20010;-77
2023/03/18 02:29:10;;;;;;;39.30;21.38;;;;;;;9.66;84.56;100989.47;6098428;19;19910;-78
2023/03/18 02:31:18;;;;;;;39.88;23.52;;;;;;;9.68;84.64;100991.13;6099292;19;20026;-79
2023/03/18 02:33:28;;;;;;;36.92;20.55;;;;;;;9.69;84.49;101002.53;6099670;19;20018;-78
2023/03/18 02:35:34;;;;;;;41.55;22.00;;;;;;;9.68;84.92;100991.13;6100641;19;20010;-78
2023/03/18 02:37:39;;;;;;;38.08;21.45;;;;;;;9.80;84.92;100991.66;6100618;19;20021;-78
2023/03/18 02:39:44;;;;;;;41.65;21.58;;;;;;;9.84;84.65;100988.84;6099849;19;20082;-79
2023/03/18 02:41:57;;;;;;;34.45;20.23;;;;;;;9.84;84.45;100980.13;6097781;19;20033;-79
2023/03/18 02:44:02;;;;;;;39.00;21.25;;;;;;;9.88;84.42;100986.97;6102021;19;20633;-79
2023/03/18 02:46:22;;;;;;;35.97;21.02;;;;;;;9.84;84.68;100983.59;6100792;19;20015;-79
2023/03/18 02:48:32;;;;;;;39.55;21.05;;;;;;;9.95;84.76;100988.47;6097745;19;20031;-79
2023/03/18 02:50:38;;;;;;;42.72;21.30;;;;;;;9.93;84.73;100990.31;6096635;19;20014;-78
2023/03/18 02:52:46;;;;;;;37.10;19.95;;;;;;;9.89;84.89;100988.69;6096749;19;20703;-78
2023/03/18 02:54:51;;;;;;;38.08;21.10;;;;;;;9.92;84.77;100990.34;6100113;19;20011;-77
2023/03/18 02:56:56;;;;;;;40.42;20.70;;;;;;;9.95;84.70;100990.22;6100185;19;20017;-78
2023/03/18 02:59:03;;;;;;;40.53;22.08;;;;;;;9.93;85.05;100992.94;6094006;19;20014;-78
2023/03/18 03:01:11;;;;;;;38.60;21.50;;;;;;;9.95;85.01;100998.09;6099397;19;20009;-77
2023/03/18 03:03:19;;;;;;;38.90;21.40;;;;;;;9.95;84.89;101004.22;6100461;19;20014;-72
2023/03/18 03:05:25;;;;;;;40.58;20.05;;;;;;;9.96;85.25;101002.47;6101389;19;20616;-71
2023/03/18 03:07:30;;;;;;;44.72;21.40;;;;;;;9.93;84.87;100994.69;6098738;19;20043;-72
2023/03/18 03:09:35;;;;;;;42.42;21.30;;;;;;;9.89;85.24;100999.19;6097579;19;20011;-72
2023/03/18 03:11:40;;;;;;;36.95;20.75;;;;;;;9.86;85.35;101002.78;6098779;19;20027;-72
2023/03/18 03:13:46;;;;;;;38.72;20.80;;;;;;;9.85;85.41;101003.69;6098709;19;20010;-71
2023/03/18 03:15:51;;;;;;;40.53;20.98;;;;;;;9.82;85.50;101000.31;6095202;19;20423;-72
2023/03/18 03:17:58;;;;;;;34.53;19.80;;;;;;;9.86;85.83;100999.28;6097145;19;20579;-72
2023/03/18 03:20:05;;;;;;;44.55;21.48;;;;;;;9.85;85.66;101005.47;6096869;19;20017;-72
2023/03/18 03:22:10;;;;;;;35.85;21.60;;;;;;;9.86;85.54;101012.41;6097579;19;20010;-72
2023/03/18 03:24:15;;;;;;;33.35;19.45;;;;;;;9.88;86.06;101002.72;6098381;19;20556;-72
2023/03/18 03:26:20;;;;;;;42.58;21.85;;;;;;;9.87;86.23;101001.88;6097460;19;20762;-72
2023/03/18 03:28:25;;;;;;;39.13;20.08;;;;;;;9.87;86.28;101011.50;6099619;19;20090;-72
2023/03/18 03:30:30;;;;;;;40.70;22.55;;;;;;;9.89;86.44;101010.53;6099537;19;20039;-72
2023/03/18 03:32:35;;;;;;;38.05;20.52;;;;;;;9.91;86.94;101018.38;6094231;19;20664;-72
2023/03/18 03:34:43;;;;;;;48.88;23.17;;;;;;;9.91;86.98;101017.53;6098926;19;20015;-73
2023/03/18 03:36:48;;;;;;;41.25;21.42;;;;;;;9.91;87.03;101023.63;6100028;19;20021;-72
2023/03/18 03:38:54;;;;;;;45.17;21.40;;;;;;;9.87;87.55;101025.50;6099209;19;20301;-73
2023/03/18 03:40:59;;;;;;;40.10;22.00;;;;;;;9.86;88.02;101031.66;6097200;19;20454;-72
2023/03/18 03:43:03;;;;;;;43.35;22.90;;;;;;;9.86;88.36;101031.66;6094700;19;20010;-73
2023/03/18 03:45:10;;;;;;;41.78;21.45;;;;;;;9.85;88.33;101024.69;6098247;19;20006;-73
2023/03/18 03:47:15;;;;;;;45.17;21.40;;;;;;;9.88;88.63;101021.97;6095034;19;20014;-73
2023/03/18 03:49:20;;;;;;;43.88;23.17;;;;;;;9.85;88.52;101031.72;6094479;19;20027;-72
2023/03/18 03:51:28;;;;;;;45.92;23.13;;;;;;;9.85;88.60;101031.72;6096716;19;20187;-77
2023/03/18 03:53:34;;;;;;;43.63;22.83;;;;;;;9.81;89.07;101030.09;6095365;19;20782;-79
2023/03/18 03:55:40;;;;;;;47.03;22.10;;;;;;;9.76;89.57;101030.25;6097762;19;20021;-78
2023/03/18 03:57:45;;;;;;;41.38;23.10;;;;;;;9.72;89.83;101026.03;6097234;19;20014;-78
2023/03/18 03:59:50;;;;;;;44.60;22.65;;;;;;;9.70;89.48;101029.59;6096949;19;20090;-79
2023/03/18 04:01:55;;;;;;;41.13;21.17;;;;;;;9.67;89.51;101030.56;6097933;19;20258;-79
2023/03/18 04:04:01;;;;;;;35.05;19.88;;;;;;;9.65;89.42;101021.88;6099960;19;20078;-79
2023/03/18 04:06:07;;;;;;;40.92;21.17;;;;;;;9.63;89.89;101021.91;6099773;19;20009;-79
2023/03/18 04:08:15;;;;;;;44.13;22.52;;;;;;;9.61;89.49;101031.63;6098936;19;20011;-79
2023/03/18 04:10:22;;;;;;;40.22;22.38;;;;;;;9.58;90.31;101026.47;6097027;19;20022;-79
2023/03/18 04:12:27;;;;;;;44.55;22.55;;;;;;;9.57;90.55;101035.25;6097887;19;20014;-80
2023/03/18 04:14:32;;;;;;;48.80;23.58;;;;;;;9.57;90.78;101035.25;6098860;19;20066;-80
2023/03/18 04:16:37;;;;;;;47.08;23.10;;;;;;;9.59;90.73;101036.06;6098243;19;20628;-79
2023/03/18 04:18:42;;;;;;;46.45;22.70;;;;;;;9.59;90.10;101038.69;6098218;19;20010;-80
2023/03/18 04:20:49;;;;;;;50.40;23.15;;;;;;;9.58;90.45;101036.97;6097851;19;20089;-80
2023/03/18 04:22:53;;;;;;;42.33;22.75;;;;;;;9.60;90.91;101037.78;6098172;19;20018;-80
2023/03/18 04:25:01;;;;;;;44.78;23.38;;;;;;;9.56;91.18;101041.44;6098694;19;20010;-80
2023/03/18 04:27:07;;;;;;;48.35;22.50;;;;;;;9.55;91.08;101047.56;6093445;19;20709;-79
2023/03/18 04:29:12;;;;;;;44.05;22.42;;;;;;;9.58;90.57;101050.06;6097434;19;20046;-79
2023/03/18 04:31:17;;;;;;;43.53;22.10;;;;;;;9.55;90.77;101059.81;6096298;19;20569;-79
2023/03/18 04:33:22;;;;;;;43.78;23.30;;;;;;;9.49;90.68;101066.13;6098504;19;20051;-79
2023/03/18 04:35:27;;;;;;;44.92;23.02;;;;;;;9.51;91.08;101080.06;6099416;19;20014;-79
2023/03/18 04:37:33;;;;;;;41.53;21.88;;;;;;;9.52;90.97;101080.91;6098969;19;20014;-79
2023/03/18 04:39:40;;;;;;;42.42;20.70;;;;;;;9.51;90.93;101082.69;6104473;19;20082;-80
2023/03/18 04:41:48;;;;;;;46.45;22.50;;;;;;;9.49;91.27;101081.88;6103266;19;20014;-79
2023/03/18 04:43:53;;;;;;;52.20;23.75;;;;;;;9.50;91.47;101082.72;6104461;19;20109;-80
2023/03/18 04:45:58;;;;;;;51.22;23.80;;;;;;;9.48;91.38;101087.16;6103703;19;20011;-79
2023/03/18 04:48:03;;;;;;;41.65;22.23;;;;;;;9.43;91.08;101085.56;6102641;19;20006;-80
2023/03/18 04:50:11;;;;;;;42.35;20.55;;;;;;;9.44;91.47;101087.25;6101526;19;20609;-80
2023/03/18 04:52:16;;;;;;;44.90;22.92;;;;;;;9.40;92.18;101090.91;6102440;19;20578;-79
2023/03/18 04:54:20;;;;;;;51.47;23.77;;;;;;;9.39;91.76;101090.94;6105558;19;20011;-79
2023/03/18 04:56:26;;;;;;;50.00;22.85;;;;;;;9.37;92.41;101098.00;6106436;19;20014;-79
2023/03/18 04:58:33;;;;;;;47.08;22.65;;;;;;;9.38;92.27;101099.72;6106235;19;20018;-79
2023/03/18 05:00:38;;;;;;;44.15;22.90;;;;;;;9.35;91.87;101103.31;6105153;19;20014;-78
2023/03/18 05:02:43;;;;;;;53.35;23.30;;;;;;;9.34;92.48;101100.72;6105033;19;20022;-79
2023/03/18 05:04:47;;;;;;;45.47;21.48;;;;;;;9.32;92.40;101099.91;6111292;19;20009;-78
2023/03/18 05:06:55;;;;;;;50.55;24.40;;;;;;;9.31;92.27;101096.44;6106174;19;20015;-79
2023/03/18 05:09:01;;;;;;;47.92;23.65;;;;;;;9.27;91.79;101096.56;6102970;19;20086;-78
2023/03/18 05:11:06;;;;;;;44.78;21.55;;;;;;;9.23;92.12;101091.41;6106862;19;20015;-80
2023/03/18 05:13:12;;;;;;;48.78;22.92;;;;;;;9.23;92.50;101094.03;6106907;19;20011;-79
2023/03/18 05:15:20;;;;;;;41.45;21.52;;;;;;;9.21;92.08;101103.69;6106535;19;20002;-78
2023/03/18 05:17:25;;;;;;;49.03;23.08;;;;;;;9.21;92.74;101090.59;6105716;19;20015;-80
2023/03/18 05:19:29;;;;;;;47.38;22.15;;;;;;;9.26;92.72;101086.97;6107612;19;20003;-79
2023/03/18 05:21:34;;;;;;;47.70;22.80;;;;;;;9.21;93.04;101084.50;6106346;19;20010;-79
2023/03/18 05:23:40;;;;;;;40.95;20.70;;;;;;;9.21;92.49;101085.34;6103180;19;20082;-79
2023/03/18 05:25:45;;;;;;;41.22;20.85;;;;;;;9.19;92.96;101084.56;6102703;19;20014;-79
2023/03/18 05:27:53;;;;;;;43.20;20.90;;;;;;;9.18;92.26;101097.72;6101967;19;20013;-79
2023/03/18 05:29:58;;;;;;;42.15;20.08;;;;;;;9.17;92.86;101083.75;6099786;19;20520;-78
2023/03/18 05:32:05;;;;;;;44.70;23.17;;;;;;;9.18;92.76;101082.81;6100452;19;20039;-79
2023/03/18 05:34:10;;;;;;;44.67;21.30;;;;;;;9.18;93.24;101082.81;6078851;19;20013;-79
2023/03/18 05:36:16;;;;;;;44.63;21.92;;;;;;;9.21;93.33;101085.34;6102002;19;20506;-79
2023/03/18 05:38:21;;;;;;;41.85;21.60;;;;;;;9.24;93.15;101084.41;6100378;19;20014;-79
2023/03/18 05:40:25;;;;;;;45.40;21.33;;;;;;;9.25;92.92;101085.28;6100318;19;20043;-79
2023/03/18 05:42:30;;;;;;;40.70;21.98;;;;;;;9.26;93.05;101086.97;6100059;19;20025;-79
2023/03/18 05:44:36;;;;;;;42.55;20.63;;;;;;;9.26;93.10;101081.75;6102091;19;20068;-79
2023/03/18 05:46:40;;;;;;;46.33;22.02;;;;;;;9.22;93.42;101081.00;6100041;19;20019;-80
2023/03/18 05:48:48;;;;;;;39.80;20.30;;;;;;;9.22;93.34;101081.00;6100318;19;20102;-81
2023/03/18 05:50:57;;;;;;;38.05;20.60;;;;;;;9.20;93.28;101077.56;6100697;19;20199;-79
2023/03/18 05:53:02;;;;;;;39.97;19.90;;;;;;;9.20;92.98;101074.94;6097892;19;20023;-80
2023/03/18 05:55:08;;;;;;;43.05;19.45;;;;;;;9.16;93.42;101076.78;6102278;19;20370;-79
2023/03/18 05:57:14;;;;;;;43.45;21.42;;;;;;;9.14;93.61;101083.00;6101816;19;20043;-79
2023/03/18 05:59:18;;;;;;;45.28;22.50;;;;;;;9.14;93.73;101088.22;6101806;19;20654;-80
2023/03/18 06:01:23;;;;;;;41.60;21.33;;;;;;;9.09;93.74;101085.75;6100691;19;20015;-78
2023/03/18 06:03:29;;;;;;;48.58;23.38;;;;;;;9.05;93.89;101093.75;6101755;19;20039;-81
2023/03/18 06:05:37;;;;;;;45.40;20.73;;;;;;;9.01;93.87;101096.47;6103474;19;20011;-78
2023/03/18 06:07:42;;;;;;;41.60;22.10;;;;;;;9.00;93.86;101094.75;6100207;19;20605;-80
2023/03/18 06:09:47;;;;;;;41.42;20.83;;;;;;;9.04;94.29;101103.38;6100327;19;20752;-79
2023/03/18 06:11:52;;;;;;;38.42;19.77;;;;;;;8.95;93.90;101099.28;6100333;19;20014;-78
2023/03/18 06:13:57;;;;;;;36.83;19.88;;;;;;;8.90;93.80;101095.94;6101414;19;20048;-79
2023/03/18 06:16:03;;;;;;;35.50;18.33;;;;;;;8.86;93.53;101107.41;6100730;19;20010;-79
2023/03/18 06:18:08;;;;;;;37.95;19.27;;;;;;;8.83;93.34;101107.50;6098308;19;20018;-79
2023/03/18 06:20:17;;;;;;;42.28;21.42;;;;;;;8.85;93.81;101116.16;6100533;19;20615;-80
2023/03/18 06:22:25;;;;;;;38.13;19.80;;;;;;;8.85;93.63;101112.69;6100410;19;20014;-79
2023/03/18 06:24:30;;;;;;;37.00;20.48;;;;;;;8.89;93.41;101123.03;6102332;19;20014;-79
2023/03/18 06:26:35;;;;;;;38.22;19.92;;;;;;;8.91;93.64;101133.47;6097506;19;20029;-81
2023/03/18 06:28:40;;;;;;;38.30;19.85;;;;;;;8.92;93.85;101129.94;6099422;19;20042;-80
2023/03/18 06:30:46;;;;;;;40.08;21.30;;;;;;;8.92;93.93;101137.81;6078100;19;20015;-81
2023/03/18 06:32:52;;;;;;;39.58;20.00;;;;;;;8.92;94.12;101132.56;6098297;19;20014;-79
2023/03/18 06:34:57;;;;;;;39.33;21.27;;;;;;;8.98;94.20;101140.25;6100178;19;20010;-79
2023/03/18 06:37:01;;;;;;;42.53;21.55;;;;;;;9.05;93.95;101141.78;6095342;19;20024;-79
2023/03/18 06:39:09;;;;;;;39.80;20.17;;;;;;;9.08;93.95;101146.94;6100607;19;20553;-80
2023/03/18 06:41:15;;;;;;;44.22;20.90;;;;;;;9.17;94.61;101138.81;6099215;19;20105;-79
2023/03/18 06:43:20;;;;;;;44.42;21.40;;;;;;;9.21;94.08;101148.28;6098865;19;20493;-80
2023/03/18 06:45:25;;;;;;;42.60;21.77;;;;;;;9.30;94.69;101155.03;6080357;19;20094;-81
2023/03/18 06:47:30;;;;;;;45.03;21.92;;;;;;;9.40;94.50;101143.38;6099695;19;20010;-80
2023/03/18 06:49:35;;;;;;;40.05;19.65;;;;;;;9.44;94.11;101152.84;6101071;19;20508;-80
2023/03/18 06:51:40;;;;;;;41.47;19.77;;;;;;;9.48;93.79;101147.50;6099428;19;20014;-79
2023/03/18 06:53:46;;;;;;;38.70;19.75;;;;;;;9.54;93.67;101153.41;6099965;19;20379;-80
2023/03/18 06:55:55;;;;;;;44.42;21.58;;;;;;;9.56;93.52;101153.38;6100263;19;20269;-79
2023/03/18 06:58:01;;;;;;;36.15;19.58;;;;;;;9.56;93.65;101156.00;6102914;19;20555;-80
2023/03/18 07:00:07;;;;;;;38.45;20.38;;;;;;;9.61;93.73;101157.59;6100344;19;20018;-80
2023/03/18 07:02:13;;;;;;;40.67;20.27;;;;;;;9.62;93.81;101156.66;6102662;19;20007;-78
2023/03/18 07:04:18;;;;;;;39.92;20.27;;;;;;;9.67;93.40;101157.38;6102884;19;20022;-79
2023/03/18 07:06:23;;;;;;;39.70;20.08;;;;;;;9.73;93.37;101160.72;6103803;19;20007;-80
2023/03/18 07:08:28;;;;;;;39.95;19.67;;;;;;;9.84;93.31;101161.22;6102084;19;20513;-78
2023/03/18 07:10:33;;;;;;;40.08;20.30;;;;;;;9.94;92.83;101162.63;6099998;19;20086;-80
2023/03/18 07:12:41;;;;;;;45.80;21.65;;;;;;;9.95;92.52;101159.09;6100522;19;20047;-80
2023/03/18 07:14:46;;;;;;;39.55;19.55;;;;;;;9.96;92.50;101152.09;6099620;19;20010;-81
2023/03/18 07:16:50;;;;;;;39.63;20.08;;;;;;;9.94;92.31;101162.63;6101724;19;20563;-80
2023/03/18 07:18:57;;;;;;;39.15;21.52;;;;;;;9.98;92.32;101164.28;6099830;19;20028;-81
2023/03/18 07:21:01;;;;;;;43.00;21.15;;;;;;;10.01;92.41;101160.69;6096623;19;20029;-81
2023/03/18 07:23:06;;;;;;;41.50;20.35;;;;;;;10.03;91.95;101159.72;6098547;19;20451;-80
2023/03/18 07:25:14;;;;;;;41.42;19.85;;;;;;;10.05;91.77;101168.38;6099612;19;20443;-81
2023/03/18 07:27:18;;;;;;;42.78;19.83;;;;;;;10.05;91.76;101163.13;6099729;19;20618;-80
2023/03/18 07:29:37;;;;;;;40.70;21.10;;;;;;;10.09;91.69;101161.28;6099226;19;20015;-81
2023/03/18 07:31:43;;;;;;;36.92;18.40;;;;;;;10.16;91.38;101167.19;6098589;19;20455;-80
2023/03/18 07:33:48;;;;;;;36.03;19.23;;;;;;;10.23;91.21;101166.06;6101360;19;20021;-81
2023/03/18 07:35:54;;;;;;;37.85;20.27;;;;;;;10.29;90.71;101160.63;6100334;19;20328;-79
2023/03/18 07:37:59;;;;;;;44.35;20.85;;;;;;;10.40;90.34;101158.50;6098892;19;20014;-80
2023/03/18 07:40:05;;;;;;;35.97;18.90;;;;;;;10.53;89.58;101159.81;6099214;19;20086;-79
2023/03/18 07:42:11;;;;;;;36.75;18.85;;;;;;;10.63;89.13;101160.31;6102755;19;20023;-80
2023/03/18 07:44:16;;;;;;;36.08;19.33;;;;;;;10.75;88.40;101161.66;6101815;19;20613;-81
2023/03/18 07:46:23;;;;;;;33.63;16.90;;;;;;;10.94;87.73;101157.44;6099639;19;20082;-80
2023/03/18 07:48:29;;;;;;;33.35;17.77;;;;;;;11.02;86.75;101170.31;6102223;19;20006;-79
2023/03/18 07:50:34;;;;;;;36.22;18.77;;;;;;;10.92;86.94;101171.56;6103885;19;20015;-78
2023/03/18 07:52:41;;;;;;;34.13;16.92;;;;;;;11.10;86.62;101170.88;6099328;19;20101;-81
2023/03/18 07:54:48;;;;;;;37.20;17.60;;;;;;;11.25;85.72;101182.59;6077801;19;20011;-80
2023/03/18 07:56:53;;;;;;;36.25;17.52;;;;;;;11.36;85.54;101177.78;6077908;19;20204;-80
2023/03/18 07:58:58;;;;;;;34.90;17.20;;;;;;;11.52;84.97;101183.31;6102446;19;20010;-79
2023/03/18 08:01:03;;;;;;;38.05;18.45;;;;;;;11.63;84.12;101177.63;6078938;19;20035;-79
2023/03/18 08:03:13;;;;;;;33.55;17.65;;;;;;;11.79;83.92;101181.34;6103984;19;20015;-80
2023/03/18 08:05:20;;;;;;;32.35;17.90;;;;;;;12.22;82.96;101178.78;6105510;19;20018;-80
2023/03/18 08:07:25;;;;;;;31.52;16.95;;;;;;;12.36;81.93;101175.56;6107068;19;20058;-79
2023/03/18 08:09:31;;;;;;;31.33;16.67;;;;;;;12.63;81.86;101155.91;6107367;19;20035;-81
2023/03/18 08:11:37;;;;;;;34.53;18.73;;;;;;;12.65;79.90;101166.41;6105953;19;20234;-80
2023/03/18 08:13:42;;;;;;;31.98;17.55;;;;;;;12.01;80.81;101164.75;6108012;19;20086;-78
2023/03/18 08:15:47;;;;;;;31.15;16.00;;;;;;;12.28;81.53;101157.44;6107052;19;20535;-80
2023/03/18 08:17:55;;;;;;;30.52;16.90;;;;;;;12.35;80.55;101152.75;6107020;19;20011;-79
2023/03/18 08:20:03;;;;;;;33.03;17.25;;;;;;;12.40;80.77;101156.94;6107379;19;20195;-79
2023/03/18 08:22:08;;;;;;;33.30;15.90;;;;;;;12.44;79.92;101160.28;6106567;19;20038;-80
2023/03/18 08:24:13;;;;;;;31.60;17.00;;;;;;;12.74;79.17;101172.13;6102022;19;20011;-80
2023/03/18 08:26:19;;;;;;;32.83;15.93;;;;;;;12.98;78.94;101166.69;6103247;19;20015;-80
2023/03/18 08:28:26;;;;;;;32.97;17.80;;;;;;;12.95;78.57;101167.69;6100575;19;20090;-79
2023/03/18 08:30:33;;;;;;;30.38;16.08;;;;;;;13.09;78.63;101177.59;6103233;19;20021;-78
2023/03/18 08:32:38;;;;;;;27.25;16.20;;;;;;;13.06;77.51;101169.84;6100607;19;20188;-80
2023/03/18 08:34:46;;;;;;;29.98;15.98;;;;;;;13.16;77.69;101175.53;6100209;19;20010;-80
2023/03/18 08:36:54;;;;;;;31.67;15.38;;;;;;;13.26;77.84;101194.44;6099314;19;20502;-79
2023/03/18 08:38:58;;;;;;;31.13;16.67;;;;;;;13.08;77.40;101189.06;6103074;19;20022;-79
2023/03/18 08:41:03;;;;;;;28.40;15.00;;;;;;;13.07;77.69;101195.28;6100153;19;20078;-79
2023/03/18 08:43:09;;;;;;;35.13;16.83;;;;;;;12.87;78.19;101195.31;6103255;19;20499;-79
2023/03/18 08:45:14;;;;;;;31.08;17.00;;;;;;;12.70;78.90;101202.19;6102697;19;20023;-80
2023/03/18 08:47:20;;;;;;;29.90;17.00;;;;;;;12.52;79.31;101217.00;6104102;19;20059;-81
2023/03/18 08:49:26;;;;;;;29.27;17.10;;;;;;;12.69;79.75;101211.03;6101443;19;20329;-80
2023/03/18 08:51:33;;;;;;;33.25;18.10;;;;;;;12.59;79.52;101208.88;6104345;19;20021;-80
2023/03/18 08:53:40;;;;;;;37.47;19.92;;;;;;;12.30;80.10;101210.94;6100772;19;20503;-80
2023/03/18 08:55:45;;;;;;;41.33;19.77;;;;;;;12.36;80.70;101212.47;6096277;19;20032;-79
2023/03/18 08:57:51;;;;;;;36.60;21.30;;;;;;;12.38;79.73;101221.19;6076591;19;20401;-80
2023/03/18 08:59:57;;;;;;;38.85;20.58;;;;;;;12.15;80.79;101228.25;6094956;19;20650;-79
2023/03/18 09:02:02;;;;;;;40.42;21.38;;;;;;;12.20;81.21;101231.53;6096498;19;20014;-80
2023/03/18 09:04:09;;;;;;;39.40;20.05;;;;;;;12.19;81.36;101228.97;6095910;19;20351;-79
2023/03/18 09:06:21;;;;;;;38.95;20.90;;;;;;;12.11;81.13;101234.53;6096417;19;20014;-79
2023/03/18 09:08:28;;;;;;;43.97;20.10;;;;;;;12.66;79.60;101232.22;6096905;19;20015;-79
2023/03/18 09:10:36;;;;;;;40.00;20.23;;;;;;;12.95;78.78;101227.47;6096472;19;20013;-79
2023/03/18 09:12:45;;;;;;;37.30;20.05;;;;;;;12.83;77.97;101230.66;6096331;19;20047;-79
2023/03/18 09:14:51;;;;;;;38.42;21.25;;;;;;;12.60;79.03;101226.38;6095945;19;20691;-79
2023/03/18 09:16:56;;;;;;;33.22;17.95;;;;;;;12.49;78.94;101227.69;6095851;19;20021;-79
2023/03/18 09:19:01;;;;;;;37.22;19.85;;;;;;;12.92;78.13;101224.97;6093777;19;20694;-79
2023/03/18 09:21:06;;;;;;;39.38;19.98;;;;;;;13.01;76.58;101221.09;6096194;19;20229;-78
2023/03/18 09:23:13;;;;;;;33.25;17.55;;;;;;;13.05;77.15;101228.78;6097637;19;20010;-79
2023/03/18 09:25:18;;;;;;;35.85;18.33;;;;;;;13.10;76.72;101218.88;6100411;19;20641;-79
2023/03/18 09:27:26;;;;;;;37.15;19.25;;;;;;;13.06;76.24;101214.69;6102856;19;20013;-79
2023/03/18 09:29:30;;;;;;;29.70;17.42;;;;;;;12.53;77.78;101220.50;6102129;19;20495;-80
2023/03/18 09:31:36;;;;;;;37.88;19.10;;;;;;;13.03;77.59;101212.16;6101507;19;20254;-79
2023/03/18 09:33:43;;;;;;;39.55;19.30;;;;;;;13.34;76.17;101216.94;6100524;19;20471;-79
2023/03/18 09:35:53;;;;;;;34.95;17.55;;;;;;;13.50;75.84;101227.66;6101474;19;20341;-79
2023/03/18 09:37:58;;;;;;;35.55;17.35;;;;;;;13.56;74.71;101232.66;6101862;19;20015;-78